sensor_id;sensor_type;location;lat;lon;timestamp;temperature;humidity
3300;DHT22;1662;49.310;8.134;2024-03-02T00:00:08;6.50;99.90
3300;DHT22;1662;49.310;8.134;2024-03-02T00:02:48;6.50;99.90
3300;DHT22;1662;49.310;8.134;2024-03-02T00:05:19;6.50;99.90
3300;DHT22;1662;49.310;8.134;2024-03-02T00:07:56;6.50;99.90
3300;DHT22;1662;49.310;8.134;2024-03-02T00:10:26;6.50;99.90
3300;DHT22;1662;49.310;8.134;2024-03-02T00:12:57;6.50;99.90
3300;DHT22;1662;49.310;8.134;2024-03-02T00:15:48;6.50;99.90
3300;DHT22;1662;49.310;8.134;2024-03-02T00:18:23;6.50;99.90
3300;DHT22;1662;49.310;8.134;2024-03-02T00:20:56;6.50;99.90
3300;DHT22;1662;49.310;8.134;2024-03-02T00:23:30;6.50;99.90
3300;DHT22;1662;49.310;8.134;2024-03-02T00:25:56;6.50;99.90
3300;DHT22;1662;49.310;8.134;2024-03-02T00:28:33;6.40;99.90
3300;DHT22;1662;49.310;8.134;2024-03-02T00:31:04;6.40;99.90
3300;DHT22;1662;49.310;8.134;2024-03-02T00:33:43;6.40;99.90
3300;DHT22;1662;49.310;8.134;2024-03-02T00:36:10;6.40;99.90
3300;DHT22;1662;49.310;8.134;2024-03-02T00:41:27;6.30;99.90
3300;DHT22;1662;49.310;8.134;2024-03-02T00:46:33;6.30;99.90
3300;DHT22;1662;49.310;8.134;2024-03-02T00:49:01;6.20;99.90
3300;DHT22;1662;49.310;8.134;2024-03-02T00:51:29;6.20;99.90
3300;DHT22;1662;49.310;8.134;2024-03-02T00:53:59;6.20;99.90
3300;DHT22;1662;49.310;8.134;2024-03-02T00:56:30;6.20;99.90
3300;DHT22;1662;49.310;8.134;2024-03-02T00:58:58;6.20;99.90
3300;DHT22;1662;49.310;8.134;2024-03-02T01:01:24;6.20;99.90
3300;DHT22;1662;49.310;8.134;2024-03-02T01:03:49;6.20;99.90
3300;DHT22;1662;49.310;8.134;2024-03-02T01:06:18;6.20;99.90
3300;DHT22;1662;49.310;8.134;2024-03-02T01:08:44;6.30;99.90
3300;DHT22;1662;49.310;8.134;2024-03-02T01:11:11;6.20;99.90
3300;DHT22;1662;49.310;8.134;2024-03-02T01:13:37;6.20;99.90
3300;DHT22;1662;49.310;8.134;2024-03-02T01:16:03;6.20;99.90
3300;DHT22;1662;49.310;8.134;2024-03-02T01:18:29;6.20;99.90
3300;DHT22;1662;49.310;8.134;2024-03-02T01:20:57;6.20;99.90
3300;DHT22;1662;49.310;8.134;2024-03-02T01:23:23;6.20;99.90
3300;DHT22;1662;49.310;8.134;2024-03-02T01:25:49;6.20;99.90
3300;DHT22;1662;49.310;8.134;2024-03-02T01:28:16;6.10;99.90
3300;DHT22;1662;49.310;8.134;2024-03-02T01:30:41;6.10;99.90
3300;DHT22;1662;49.310;8.134;2024-03-02T01:33:07;6.00;99.90
3300;DHT22;1662;49.310;8.134;2024-03-02T01:35:33;6.00;99.90
3300;DHT22;1662;49.310;8.134;2024-03-02T01:38:00;6.00;99.90
3300;DHT22;1662;49.310;8.134;2024-03-02T01:40:26;5.90;99.90
3300;DHT22;1662;49.310;8.134;2024-03-02T01:42:55;5.90;99.90
3300;DHT22;1662;49.310;8.134;2024-03-02T01:45:23;5.90;99.90
3300;DHT22;1662;49.310;8.134;2024-03-02T01:47:49;6.00;99.90
3300;DHT22;1662;49.310;8.134;2024-03-02T01:50:15;5.90;99.90
3300;DHT22;1662;49.310;8.134;2024-03-02T01:52:41;5.90;99.90
3300;DHT22;1662;49.310;8.134;2024-03-02T01:55:11;5.90;99.90
3300;DHT22;1662;49.310;8.134;2024-03-02T01:57:37;5.90;99.90
3300;DHT22;1662;49.310;8.134;2024-03-02T02:00:02;5.90;99.90
3300;DHT22;1662;49.310;8.134;2024-03-02T02:02:28;5.80;99.90
3300;DHT22;1662;49.310;8.134;2024-03-02T02:04:54;5.80;99.90
3300;DHT22;1662;49.310;8.134;2024-03-02T02:07:20;5.80;99.90
3300;DHT22;1662;49.310;8.134;2024-03-02T02:09:48;5.80;99.90
3300;DHT22;1662;49.310;8.134;2024-03-02T02:12:16;5.80;99.90
3300;DHT22;1662;49.310;8.134;2024-03-02T02:14:51;5.90;99.90
3300;DHT22;1662;49.310;8.134;2024-03-02T02:17:19;5.90;99.90
3300;DHT22;1662;49.310;8.134;2024-03-02T02:19:45;5.80;99.90
3300;DHT22;1662;49.310;8.134;2024-03-02T02:22:11;5.80;99.90
3300;DHT22;1662;49.310;8.134;2024-03-02T02:24:40;5.80;99.90
3300;DHT22;1662;49.310;8.134;2024-03-02T02:27:09;5.80;99.90
3300;DHT22;1662;49.310;8.134;2024-03-02T02:29:40;5.80;99.90
3300;DHT22;1662;49.310;8.134;2024-03-02T02:32:06;5.80;99.90
3300;DHT22;1662;49.310;8.134;2024-03-02T02:34:32;5.80;99.90
3300;DHT22;1662;49.310;8.134;2024-03-02T02:36:58;5.80;99.90
3300;DHT22;1662;49.310;8.134;2024-03-02T02:39:24;5.70;99.90
3300;DHT22;1662;49.310;8.134;2024-03-02T02:41:50;5.70;99.90
3300;DHT22;1662;49.310;8.134;2024-03-02T02:44:15;5.70;99.90
3300;DHT22;1662;49.310;8.134;2024-03-02T02:46:43;5.70;99.90
3300;DHT22;1662;49.310;8.134;2024-03-02T02:49:09;5.60;99.90
3300;DHT22;1662;49.310;8.134;2024-03-02T02:51:40;5.60;99.90
3300;DHT22;1662;49.310;8.134;2024-03-02T02:54:05;5.60;99.90
3300;DHT22;1662;49.310;8.134;2024-03-02T02:56:34;5.60;99.90
3300;DHT22;1662;49.310;8.134;2024-03-02T02:59:09;5.60;99.90
3300;DHT22;1662;49.310;8.134;2024-03-02T03:01:34;5.60;99.90
3300;DHT22;1662;49.310;8.134;2024-03-02T03:04:00;5.50;99.90
3300;DHT22;1662;49.310;8.134;2024-03-02T03:06:25;5.50;99.90
3300;DHT22;1662;49.310;8.134;2024-03-02T03:08:53;5.50;99.90
3300;DHT22;1662;49.310;8.134;2024-03-02T03:11:19;5.50;99.90
3300;DHT22;1662;49.310;8.134;2024-03-02T03:13:47;5.50;99.90
3300;DHT22;1662;49.310;8.134;2024-03-02T03:16:13;5.40;99.90
3300;DHT22;1662;49.310;8.134;2024-03-02T03:18:39;5.40;99.90
3300;DHT22;1662;49.310;8.134;2024-03-02T03:21:08;5.40;99.90
3300;DHT22;1662;49.310;8.134;2024-03-02T03:23:34;5.40;99.90
3300;DHT22;1662;49.310;8.134;2024-03-02T03:26:00;5.40;99.90
3300;DHT22;1662;49.310;8.134;2024-03-02T03:28:26;5.30;99.90
3300;DHT22;1662;49.310;8.134;2024-03-02T03:30:51;5.30;99.90
3300;DHT22;1662;49.310;8.134;2024-03-02T03:33:17;5.30;99.90
3300;DHT22;1662;49.310;8.134;2024-03-02T03:35:45;5.30;99.90
3300;DHT22;1662;49.310;8.134;2024-03-02T03:38:10;5.20;99.90
3300;DHT22;1662;49.310;8.134;2024-03-02T03:40:36;5.20;99.90
3300;DHT22;1662;49.310;8.134;2024-03-02T03:43:02;5.20;99.90
3300;DHT22;1662;49.310;8.134;2024-03-02T03:45:28;5.20;99.90
3300;DHT22;1662;49.310;8.134;2024-03-02T03:47:54;5.20;99.90
3300;DHT22;1662;49.310;8.134;2024-03-02T03:50:20;5.20;99.90
3300;DHT22;1662;49.310;8.134;2024-03-02T03:52:45;5.20;99.90
3300;DHT22;1662;49.310;8.134;2024-03-02T03:55:11;5.20;99.90
3300;DHT22;1662;49.310;8.134;2024-03-02T03:57:39;5.20;99.90
3300;DHT22;1662;49.310;8.134;2024-03-02T04:00:06;5.10;99.90
3300;DHT22;1662;49.310;8.134;2024-03-02T04:02:32;5.10;99.90
3300;DHT22;1662;49.310;8.134;2024-03-02T04:04:58;5.10;99.90
3300;DHT22;1662;49.310;8.134;2024-03-02T04:07:23;5.10;99.90
3300;DHT22;1662;49.310;8.134;2024-03-02T04:09:49;5.10;99.90
3300;DHT22;1662;49.310;8.134;2024-03-02T04:12:17;5.10;99.90
3300;DHT22;1662;49.310;8.134;2024-03-02T04:14:43;5.10;99.90
3300;DHT22;1662;49.310;8.134;2024-03-02T04:17:08;5.10;99.90
3300;DHT22;1662;49.310;8.134;2024-03-02T04:19:35;5.00;99.90
3300;DHT22;1662;49.310;8.134;2024-03-02T04:22:00;5.00;99.90
3300;DHT22;1662;49.310;8.134;2024-03-02T04:24:26;5.00;99.90
3300;DHT22;1662;49.310;8.134;2024-03-02T04:26:51;5.00;99.90
3300;DHT22;1662;49.310;8.134;2024-03-02T04:29:17;4.90;99.90
3300;DHT22;1662;49.310;8.134;2024-03-02T04:31:43;4.90;99.90
3300;DHT22;1662;49.310;8.134;2024-03-02T04:34:08;4.90;99.90
3300;DHT22;1662;49.310;8.134;2024-03-02T04:36:34;4.80;99.90
3300;DHT22;1662;49.310;8.134;2024-03-02T04:39:00;4.80;99.90
3300;DHT22;1662;49.310;8.134;2024-03-02T04:41:28;4.80;99.90
3300;DHT22;1662;49.310;8.134;2024-03-02T04:43:53;4.80;99.90
3300;DHT22;1662;49.310;8.134;2024-03-02T04:46:22;4.80;99.90
3300;DHT22;1662;49.310;8.134;2024-03-02T04:48:47;4.80;99.90
3300;DHT22;1662;49.310;8.134;2024-03-02T04:51:20;4.80;99.90
3300;DHT22;1662;49.310;8.134;2024-03-02T04:53:45;4.80;99.90
3300;DHT22;1662;49.310;8.134;2024-03-02T04:56:11;4.80;99.90
3300;DHT22;1662;49.310;8.134;2024-03-02T04:59:05;4.80;99.90
3300;DHT22;1662;49.310;8.134;2024-03-02T05:01:31;4.80;99.90
3300;DHT22;1662;49.310;8.134;2024-03-02T05:04:00;4.80;99.90
3300;DHT22;1662;49.310;8.134;2024-03-02T05:06:26;4.80;99.90
3300;DHT22;1662;49.310;8.134;2024-03-02T05:08:52;4.80;99.90
3300;DHT22;1662;49.310;8.134;2024-03-02T05:11:17;4.80;99.90
3300;DHT22;1662;49.310;8.134;2024-03-02T05:14:09;4.80;99.90
3300;DHT22;1662;49.310;8.134;2024-03-02T05:16:35;4.80;99.90
3300;DHT22;1662;49.310;8.134;2024-03-02T05:19:03;4.80;99.90
3300;DHT22;1662;49.310;8.134;2024-03-02T05:21:32;4.80;99.90
3300;DHT22;1662;49.310;8.134;2024-03-02T05:24:00;4.80;99.90
3300;DHT22;1662;49.310;8.134;2024-03-02T05:26:26;4.80;99.90
3300;DHT22;1662;49.310;8.134;2024-03-02T05:28:52;4.80;99.90
3300;DHT22;1662;49.310;8.134;2024-03-02T05:31:17;4.90;99.90
3300;DHT22;1662;49.310;8.134;2024-03-02T05:33:43;4.90;99.90
3300;DHT22;1662;49.310;8.134;2024-03-02T05:36:09;4.90;99.90
3300;DHT22;1662;49.310;8.134;2024-03-02T05:38:38;5.00;99.90
3300;DHT22;1662;49.310;8.134;2024-03-02T05:41:03;5.10;99.90
3300;DHT22;1662;49.310;8.134;2024-03-02T05:43:30;5.10;99.90
3300;DHT22;1662;49.310;8.134;2024-03-02T05:45:55;5.10;99.90
3300;DHT22;1662;49.310;8.134;2024-03-02T05:48:24;5.00;99.90
3300;DHT22;1662;49.310;8.134;2024-03-02T05:50:49;5.10;99.90
3300;DHT22;1662;49.310;8.134;2024-03-02T05:53:15;5.10;99.90
3300;DHT22;1662;49.310;8.134;2024-03-02T05:55:41;5.00;99.90
3300;DHT22;1662;49.310;8.134;2024-03-02T05:58:10;5.10;99.90
3300;DHT22;1662;49.310;8.134;2024-03-02T06:01:01;5.00;99.90
3300;DHT22;1662;49.310;8.134;2024-03-02T06:03:27;5.00;99.90
3300;DHT22;1662;49.310;8.134;2024-03-02T06:05:53;5.10;99.90
3300;DHT22;1662;49.310;8.134;2024-03-02T06:08:19;5.30;99.90
3300;DHT22;1662;49.310;8.134;2024-03-02T06:10:44;5.30;99.90
3300;DHT22;1662;49.310;8.134;2024-03-02T06:13:11;5.20;99.90
3300;DHT22;1662;49.310;8.134;2024-03-02T06:15:36;5.20;99.90
3300;DHT22;1662;49.310;8.134;2024-03-02T06:18:02;5.20;99.90
3300;DHT22;1662;49.310;8.134;2024-03-02T06:20:28;5.20;99.90
3300;DHT22;1662;49.310;8.134;2024-03-02T06:22:56;5.20;99.90
3300;DHT22;1662;49.310;8.134;2024-03-02T06:25:21;5.20;99.90
3300;DHT22;1662;49.310;8.134;2024-03-02T06:27:47;5.20;99.90
3300;DHT22;1662;49.310;8.134;2024-03-02T06:30:13;5.20;99.90
3300;DHT22;1662;49.310;8.134;2024-03-02T06:32:38;5.20;99.90
3300;DHT22;1662;49.310;8.134;2024-03-02T06:35:06;5.20;99.90
3300;DHT22;1662;49.310;8.134;2024-03-02T06:37:36;5.30;99.90
3300;DHT22;1662;49.310;8.134;2024-03-02T06:40:05;5.30;99.90
3300;DHT22;1662;49.310;8.134;2024-03-02T06:42:33;5.30;99.90
3300;DHT22;1662;49.310;8.134;2024-03-02T06:44:59;5.40;99.90
3300;DHT22;1662;49.310;8.134;2024-03-02T06:47:25;5.40;99.90
3300;DHT22;1662;49.310;8.134;2024-03-02T06:49:50;5.40;99.90
3300;DHT22;1662;49.310;8.134;2024-03-02T06:52:16;5.40;99.90
3300;DHT22;1662;49.310;8.134;2024-03-02T06:54:42;5.50;99.90
3300;DHT22;1662;49.310;8.134;2024-03-02T06:57:10;5.50;99.90
3300;DHT22;1662;49.310;8.134;2024-03-02T06:59:36;5.60;99.90
3300;DHT22;1662;49.310;8.134;2024-03-02T07:02:02;5.60;99.90
3300;DHT22;1662;49.310;8.134;2024-03-02T07:04:31;5.60;99.90
3300;DHT22;1662;49.310;8.134;2024-03-02T07:06:56;5.60;99.90
3300;DHT22;1662;49.310;8.134;2024-03-02T07:09:22;5.60;99.90
3300;DHT22;1662;49.310;8.134;2024-03-02T07:11:48;5.70;99.90
3300;DHT22;1662;49.310;8.134;2024-03-02T07:14:15;5.70;99.90
3300;DHT22;1662;49.310;8.134;2024-03-02T07:16:40;5.70;99.90
3300;DHT22;1662;49.310;8.134;2024-03-02T07:19:08;5.80;99.90
3300;DHT22;1662;49.310;8.134;2024-03-02T07:21:34;5.80;99.90
3300;DHT22;1662;49.310;8.134;2024-03-02T07:24:02;5.90;99.90
3300;DHT22;1662;49.310;8.134;2024-03-02T07:26:31;5.90;99.90
3300;DHT22;1662;49.310;8.134;2024-03-02T07:28:57;5.90;99.90
3300;DHT22;1662;49.310;8.134;2024-03-02T07:31:23;6.00;99.90
3300;DHT22;1662;49.310;8.134;2024-03-02T07:33:48;6.00;99.90
3300;DHT22;1662;49.310;8.134;2024-03-02T07:36:14;6.00;99.90
3300;DHT22;1662;49.310;8.134;2024-03-02T07:38:40;6.00;99.90
3300;DHT22;1662;49.310;8.134;2024-03-02T07:41:09;6.10;99.90
3300;DHT22;1662;49.310;8.134;2024-03-02T07:43:36;6.10;99.90
3300;DHT22;1662;49.310;8.134;2024-03-02T07:46:07;6.20;99.90
3300;DHT22;1662;49.310;8.134;2024-03-02T07:48:32;6.20;99.90
3300;DHT22;1662;49.310;8.134;2024-03-02T07:50:58;6.20;99.90
3300;DHT22;1662;49.310;8.134;2024-03-02T07:53:24;6.30;99.90
3300;DHT22;1662;49.310;8.134;2024-03-02T07:55:49;6.30;99.90
3300;DHT22;1662;49.310;8.134;2024-03-02T07:58:18;6.30;99.90
3300;DHT22;1662;49.310;8.134;2024-03-02T08:00:44;6.40;99.90
3300;DHT22;1662;49.310;8.134;2024-03-02T08:03:10;6.40;99.90
3300;DHT22;1662;49.310;8.134;2024-03-02T08:05:37;6.50;99.90
3300;DHT22;1662;49.310;8.134;2024-03-02T08:08:04;6.50;99.90
3300;DHT22;1662;49.310;8.134;2024-03-02T08:10:29;6.60;99.90
3300;DHT22;1662;49.310;8.134;2024-03-02T08:12:55;6.60;99.90
3300;DHT22;1662;49.310;8.134;2024-03-02T08:15:20;6.70;99.90
3300;DHT22;1662;49.310;8.134;2024-03-02T08:17:46;6.70;99.90
3300;DHT22;1662;49.310;8.134;2024-03-02T08:20:15;6.80;99.90
3300;DHT22;1662;49.310;8.134;2024-03-02T08:22:41;6.80;99.90
3300;DHT22;1662;49.310;8.134;2024-03-02T08:25:07;6.90;99.90
3300;DHT22;1662;49.310;8.134;2024-03-02T08:27:33;7.00;99.90
3300;DHT22;1662;49.310;8.134;2024-03-02T08:30:02;7.00;99.90
3300;DHT22;1662;49.310;8.134;2024-03-02T08:32:31;7.10;99.90
3300;DHT22;1662;49.310;8.134;2024-03-02T08:35:00;7.20;99.90
3300;DHT22;1662;49.310;8.134;2024-03-02T08:37:26;7.20;99.90
3300;DHT22;1662;49.310;8.134;2024-03-02T08:39:52;7.30;99.90
3300;DHT22;1662;49.310;8.134;2024-03-02T08:42:17;7.40;99.90
3300;DHT22;1662;49.310;8.134;2024-03-02T08:44:43;7.40;99.90
3300;DHT22;1662;49.310;8.134;2024-03-02T08:47:09;7.40;99.90
3300;DHT22;1662;49.310;8.134;2024-03-02T08:49:35;7.40;99.90
3300;DHT22;1662;49.310;8.134;2024-03-02T08:52:00;7.50;99.90
3300;DHT22;1662;49.310;8.134;2024-03-02T08:54:26;7.50;99.90
3300;DHT22;1662;49.310;8.134;2024-03-02T08:56:54;7.60;99.90
3300;DHT22;1662;49.310;8.134;2024-03-02T08:59:20;7.70;99.90
3300;DHT22;1662;49.310;8.134;2024-03-02T09:01:45;7.70;99.90
3300;DHT22;1662;49.310;8.134;2024-03-02T09:04:11;7.80;99.90
3300;DHT22;1662;49.310;8.134;2024-03-02T09:06:37;7.80;99.90
3300;DHT22;1662;49.310;8.134;2024-03-02T09:09:05;7.90;99.90
3300;DHT22;1662;49.310;8.134;2024-03-02T09:11:36;7.90;99.90
3300;DHT22;1662;49.310;8.134;2024-03-02T09:14:02;8.00;99.90
3300;DHT22;1662;49.310;8.134;2024-03-02T09:16:28;8.00;99.90
3300;DHT22;1662;49.310;8.134;2024-03-02T09:18:56;8.10;99.90
3300;DHT22;1662;49.310;8.134;2024-03-02T09:21:22;8.20;99.90
3300;DHT22;1662;49.310;8.134;2024-03-02T09:23:48;8.20;99.90
3300;DHT22;1662;49.310;8.134;2024-03-02T09:26:14;8.30;99.90
3300;DHT22;1662;49.310;8.134;2024-03-02T09:28:45;8.40;99.90
3300;DHT22;1662;49.310;8.134;2024-03-02T09:31:10;8.50;99.90
3300;DHT22;1662;49.310;8.134;2024-03-02T09:33:37;8.60;99.90
3300;DHT22;1662;49.310;8.134;2024-03-02T09:36:04;8.70;99.90
3300;DHT22;1662;49.310;8.134;2024-03-02T09:38:32;8.80;99.90
3300;DHT22;1662;49.310;8.134;2024-03-02T09:41:00;8.80;99.90
3300;DHT22;1662;49.310;8.134;2024-03-02T09:43:26;8.80;99.90
3300;DHT22;1662;49.310;8.134;2024-03-02T09:45:52;8.80;99.90
3300;DHT22;1662;49.310;8.134;2024-03-02T09:48:18;8.80;99.90
3300;DHT22;1662;49.310;8.134;2024-03-02T09:50:46;8.80;99.90
3300;DHT22;1662;49.310;8.134;2024-03-02T09:53:12;8.80;99.90
3300;DHT22;1662;49.310;8.134;2024-03-02T09:55:37;8.90;99.90
3300;DHT22;1662;49.310;8.134;2024-03-02T09:58:08;9.00;99.90
3300;DHT22;1662;49.310;8.134;2024-03-02T10:00:33;9.00;99.90
3300;DHT22;1662;49.310;8.134;2024-03-02T10:02:59;9.10;99.90
3300;DHT22;1662;49.310;8.134;2024-03-02T10:05:28;9.20;99.90
3300;DHT22;1662;49.310;8.134;2024-03-02T10:08:01;9.20;99.90
3300;DHT22;1662;49.310;8.134;2024-03-02T10:10:36;9.30;99.90
3300;DHT22;1662;49.310;8.134;2024-03-02T10:13:06;9.40;99.90
3300;DHT22;1662;49.310;8.134;2024-03-02T10:15:35;9.50;99.90
3300;DHT22;1662;49.310;8.134;2024-03-02T10:18:03;9.70;99.90
3300;DHT22;1662;49.310;8.134;2024-03-02T10:20:31;9.80;99.90
3300;DHT22;1662;49.310;8.134;2024-03-02T10:23:19;9.90;99.90
3300;DHT22;1662;49.310;8.134;2024-03-02T10:25:46;10.00;99.90
3300;DHT22;1662;49.310;8.134;2024-03-02T10:28:11;10.10;99.90
3300;DHT22;1662;49.310;8.134;2024-03-02T10:30:37;10.10;99.90
3300;DHT22;1662;49.310;8.134;2024-03-02T10:33:03;10.20;99.90
3300;DHT22;1662;49.310;8.134;2024-03-02T10:35:30;10.20;99.90
3300;DHT22;1662;49.310;8.134;2024-03-02T10:38:03;10.30;99.90
3300;DHT22;1662;49.310;8.134;2024-03-02T10:40:30;10.50;99.90
3300;DHT22;1662;49.310;8.134;2024-03-02T10:42:55;10.60;99.90
3300;DHT22;1662;49.310;8.134;2024-03-02T10:45:21;10.80;99.90
3300;DHT22;1662;49.310;8.134;2024-03-02T10:47:49;11.00;99.90
3300;DHT22;1662;49.310;8.134;2024-03-02T10:50:15;11.10;99.90
3300;DHT22;1662;49.310;8.134;2024-03-02T10:52:40;11.30;99.90
3300;DHT22;1662;49.310;8.134;2024-03-02T10:55:07;11.50;99.90
3300;DHT22;1662;49.310;8.134;2024-03-02T10:57:42;11.60;99.90
3300;DHT22;1662;49.310;8.134;2024-03-02T11:00:12;11.70;99.90
3300;DHT22;1662;49.310;8.134;2024-03-02T11:02:48;11.80;99.90
3300;DHT22;1662;49.310;8.134;2024-03-02T11:05:28;11.80;99.90
3300;DHT22;1662;49.310;8.134;2024-03-02T11:08:01;12.00;99.90
3300;DHT22;1662;49.310;8.134;2024-03-02T11:11:06;12.10;99.90
3300;DHT22;1662;49.310;8.134;2024-03-02T11:13:33;12.40;99.90
3300;DHT22;1662;49.310;8.134;2024-03-02T11:18:47;12.70;99.90
3300;DHT22;1662;49.310;8.134;2024-03-02T11:21:15;12.90;99.90
3300;DHT22;1662;49.310;8.134;2024-03-02T11:23:42;13.00;99.90
3300;DHT22;1662;49.310;8.134;2024-03-02T11:26:21;13.20;99.90
3300;DHT22;1662;49.310;8.134;2024-03-02T11:28:47;13.40;99.90
3300;DHT22;1662;49.310;8.134;2024-03-02T11:31:13;13.60;99.90
3300;DHT22;1662;49.310;8.134;2024-03-02T11:33:38;13.70;99.90
3300;DHT22;1662;49.310;8.134;2024-03-02T11:36:07;13.90;99.90
3300;DHT22;1662;49.310;8.134;2024-03-02T11:38:33;14.00;99.90
3300;DHT22;1662;49.310;8.134;2024-03-02T11:41:06;14.10;99.90
3300;DHT22;1662;49.310;8.134;2024-03-02T11:43:37;14.10;99.90
3300;DHT22;1662;49.310;8.134;2024-03-02T11:46:05;14.30;99.90
3300;DHT22;1662;49.310;8.134;2024-03-02T11:48:33;14.40;99.90
3300;DHT22;1662;49.310;8.134;2024-03-02T11:51:02;14.50;99.90
3300;DHT22;1662;49.310;8.134;2024-03-02T11:53:28;14.50;99.90
3300;DHT22;1662;49.310;8.134;2024-03-02T11:55:58;14.50;99.90
3300;DHT22;1662;49.310;8.134;2024-03-02T11:58:24;14.50;99.90
3300;DHT22;1662;49.310;8.134;2024-03-02T12:00:52;14.40;99.90
3300;DHT22;1662;49.310;8.134;2024-03-02T12:03:21;14.30;99.90
3300;DHT22;1662;49.310;8.134;2024-03-02T12:05:49;14.30;99.90
3300;DHT22;1662;49.310;8.134;2024-03-02T12:08:16;14.40;99.90
3300;DHT22;1662;49.310;8.134;2024-03-02T12:10:42;14.40;99.90
3300;DHT22;1662;49.310;8.134;2024-03-02T12:13:10;14.40;99.90
3300;DHT22;1662;49.310;8.134;2024-03-02T12:15:38;14.40;99.90
3300;DHT22;1662;49.310;8.134;2024-03-02T12:18:05;14.40;99.90
3300;DHT22;1662;49.310;8.134;2024-03-02T12:20:33;14.70;99.90
3300;DHT22;1662;49.310;8.134;2024-03-02T12:23:01;15.00;99.90
3300;DHT22;1662;49.310;8.134;2024-03-02T12:25:28;15.30;99.90
3300;DHT22;1662;49.310;8.134;2024-03-02T12:27:57;15.50;99.90
3300;DHT22;1662;49.310;8.134;2024-03-02T12:30:23;15.80;99.90
3300;DHT22;1662;49.310;8.134;2024-03-02T12:32:50;15.90;99.90
3300;DHT22;1662;49.310;8.134;2024-03-02T12:35:15;16.10;99.90
3300;DHT22;1662;49.310;8.134;2024-03-02T12:37:43;16.20;99.90
3300;DHT22;1662;49.310;8.134;2024-03-02T12:40:15;16.30;99.90
3300;DHT22;1662;49.310;8.134;2024-03-02T12:42:43;16.40;99.90
3300;DHT22;1662;49.310;8.134;2024-03-02T12:45:09;16.60;99.90
3300;DHT22;1662;49.310;8.134;2024-03-02T12:47:35;16.70;99.90
3300;DHT22;1662;49.310;8.134;2024-03-02T12:50:01;16.80;99.90
3300;DHT22;1662;49.310;8.134;2024-03-02T12:52:27;16.90;99.90
3300;DHT22;1662;49.310;8.134;2024-03-02T12:54:53;17.10;99.90
3300;DHT22;1662;49.310;8.134;2024-03-02T12:57:26;17.20;99.90
3300;DHT22;1662;49.310;8.134;2024-03-02T12:59:56;17.50;99.90
3300;DHT22;1662;49.310;8.134;2024-03-02T13:02:22;17.70;99.90
3300;DHT22;1662;49.310;8.134;2024-03-02T13:04:57;17.70;99.90
3300;DHT22;1662;49.310;8.134;2024-03-02T13:07:24;17.80;99.90
3300;DHT22;1662;49.310;8.134;2024-03-02T13:09:51;17.90;99.90
3300;DHT22;1662;49.310;8.134;2024-03-02T13:12:17;18.00;99.90
3300;DHT22;1662;49.310;8.134;2024-03-02T13:14:43;18.10;99.90
3300;DHT22;1662;49.310;8.134;2024-03-02T13:17:09;18.10;99.90
3300;DHT22;1662;49.310;8.134;2024-03-02T13:19:35;18.30;99.90
3300;DHT22;1662;49.310;8.134;2024-03-02T13:22:01;18.30;99.90
3300;DHT22;1662;49.310;8.134;2024-03-02T13:24:30;18.40;99.90
3300;DHT22;1662;49.310;8.134;2024-03-02T13:26:56;18.50;99.90
3300;DHT22;1662;49.310;8.134;2024-03-02T13:36:45;18.40;99.90
3300;DHT22;1662;49.310;8.134;2024-03-02T13:39:10;18.20;99.90
3300;DHT22;1662;49.310;8.134;2024-03-02T13:41:36;18.00;99.90
